createdAt,value
2022-10-04T00:01:48.127Z,100.00
2022-10-04T00:04:23.397Z,100.00
2022-10-04T00:06:59.319Z,100.00
2022-10-04T00:09:35.960Z,100.00
2022-10-04T00:12:06.120Z,100.00
2022-10-04T00:14:39.254Z,100.00
2022-10-04T00:17:13.946Z,100.00
2022-10-04T00:19:45.774Z,100.00
2022-10-04T00:22:21.879Z,100.00
2022-10-04T00:25:19.457Z,100.00
2022-10-04T00:28:31.259Z,100.00
2022-10-04T00:31:22.518Z,100.00
2022-10-04T00:33:58.106Z,100.00
2022-10-04T00:36:53.681Z,100.00
2022-10-04T00:39:42.951Z,100.00
2022-10-04T00:42:29.972Z,100.00
2022-10-04T00:45:02.669Z,100.00
2022-10-04T00:47:55.355Z,100.00
2022-10-04T00:50:34.509Z,100.00
2022-10-04T00:53:12.725Z,100.00
2022-10-04T00:55:49.458Z,100.00
2022-10-04T00:58:24.145Z,100.00
2022-10-04T01:00:56.012Z,100.00
2022-10-04T01:03:32.578Z,100.00
2022-10-04T01:06:05.586Z,100.00
2022-10-04T01:08:38.834Z,100.00
2022-10-04T01:11:15.718Z,100.00
2022-10-04T01:13:53.802Z,100.00
2022-10-04T01:16:27.096Z,100.00
2022-10-04T01:18:55.766Z,100.00
2022-10-04T01:21:30.753Z,100.00
2022-10-04T01:24:21.528Z,100.00
2022-10-04T01:26:48.943Z,100.00
2022-10-04T01:29:18.982Z,100.00
2022-10-04T01:31:49.399Z,100.00
2022-10-04T01:34:20.513Z,100.00
2022-10-04T01:36:51.823Z,100.00
2022-10-04T01:39:23.463Z,100.00
2022-10-04T01:42:00.539Z,100.00
2022-10-04T01:44:36.651Z,100.00
2022-10-04T01:47:09.165Z,100.00
2022-10-04T01:49:42.030Z,100.00
2022-10-04T01:52:18.024Z,100.00
2022-10-04T01:54:59.550Z,100.00
2022-10-04T01:57:35.674Z,100.00
2022-10-04T02:00:07.201Z,100.00
2022-10-04T02:02:43.531Z,100.00
2022-10-04T02:05:17.552Z,100.00
2022-10-04T02:07:47.728Z,100.00
2022-10-04T02:10:22.814Z,100.00
2022-10-04T02:12:54.063Z,100.00
2022-10-04T02:15:24.730Z,100.00
2022-10-04T02:17:55.349Z,100.00
2022-10-04T02:20:27.455Z,100.00
2022-10-04T02:22:59.057Z,100.00
2022-10-04T02:25:27.530Z,100.00
2022-10-04T02:27:55.859Z,100.00
2022-10-04T02:30:24.506Z,100.00
2022-10-04T02:32:57.031Z,100.00
2022-10-04T02:35:27.933Z,100.00
2022-10-04T02:38:09.002Z,100.00
2022-10-04T02:40:47.773Z,100.00
2022-10-04T02:43:23.398Z,100.00
2022-10-04T02:45:59.661Z,100.00
2022-10-04T02:48:36.470Z,100.00
2022-10-04T02:51:19.179Z,100.00
2022-10-04T02:54:03.702Z,100.00
2022-10-04T02:56:33.779Z,100.00
2022-10-04T02:59:03.295Z,100.00
2022-10-04T03:01:46.665Z,100.00
2022-10-04T03:04:14.994Z,100.00
2022-10-04T03:06:44.640Z,100.00
2022-10-04T03:09:13.917Z,100.00
2022-10-04T03:11:43.313Z,100.00
2022-10-04T03:14:18.441Z,100.00
2022-10-04T03:16:49.709Z,100.00
2022-10-04T03:19:19.639Z,100.00
2022-10-04T03:21:49.932Z,100.00
2022-10-04T03:24:23.386Z,100.00
2022-10-04T03:26:55.529Z,100.00
2022-10-04T03:29:27.441Z,100.00
2022-10-04T03:31:57.437Z,100.00
2022-10-04T03:34:31.993Z,100.00
2022-10-04T03:37:01.822Z,100.00
2022-10-04T03:39:33.149Z,100.00
2022-10-04T03:42:07.645Z,100.00
2022-10-04T03:44:35.049Z,100.00
2022-10-04T03:47:08.940Z,100.00
2022-10-04T03:49:38.643Z,100.00
2022-10-04T03:52:13.008Z,100.00
2022-10-04T03:54:41.218Z,100.00
2022-10-04T03:57:10.910Z,100.00
2022-10-04T03:59:38.822Z,100.00
2022-10-04T04:02:18.279Z,100.00
2022-10-04T04:04:58.349Z,100.00
2022-10-04T04:07:36.321Z,100.00
2022-10-04T04:10:16.934Z,100.00
2022-10-04T04:12:53.971Z,100.00
2022-10-04T04:15:21.531Z,100.00
2022-10-04T04:17:54.363Z,100.00
2022-10-04T04:20:28.045Z,100.00
2022-10-04T04:23:02.062Z,100.00
2022-10-04T04:25:34.693Z,100.00
2022-10-04T04:28:16.683Z,100.00
2022-10-04T04:30:49.562Z,100.00
2022-10-04T04:33:30.003Z,100.00
2022-10-04T04:36:05.178Z,100.00
2022-10-04T04:38:33.509Z,100.00
2022-10-04T04:41:10.567Z,100.00
2022-10-04T04:43:44.304Z,100.00
2022-10-04T04:46:27.899Z,100.00
2022-10-04T04:49:04.319Z,100.00
2022-10-04T04:51:33.296Z,100.00
2022-10-04T04:54:06.542Z,100.00
2022-10-04T04:56:35.439Z,100.00
2022-10-04T04:59:07.875Z,100.00
2022-10-04T05:01:43.680Z,100.00
2022-10-04T05:04:20.162Z,100.00
2022-10-04T05:07:00.033Z,100.00
2022-10-04T05:09:32.378Z,100.00
2022-10-04T05:12:08.190Z,100.00
2022-10-04T05:14:41.000Z,100.00
2022-10-04T05:17:15.695Z,100.00
2022-10-04T05:19:42.960Z,100.00
2022-10-04T05:22:14.894Z,100.00
2022-10-04T05:24:46.343Z,100.00
2022-10-04T05:27:17.975Z,100.00
2022-10-04T05:30:02.630Z,100.00
2022-10-04T05:32:49.649Z,100.00
2022-10-04T05:35:19.444Z,100.00
2022-10-04T05:38:07.687Z,100.00
2022-10-04T05:40:45.704Z,100.00
2022-10-04T05:43:31.813Z,100.00
2022-10-04T05:46:23.349Z,100.00
2022-10-04T05:48:58.406Z,100.00
2022-10-04T05:51:28.951Z,100.00
2022-10-04T05:54:01.764Z,100.00
2022-10-04T05:57:01.812Z,100.00
2022-10-04T05:59:48.906Z,100.00
2022-10-04T06:02:37.067Z,100.00
2022-10-04T06:05:14.257Z,100.00
2022-10-04T06:07:53.064Z,100.00
2022-10-04T06:11:03.844Z,100.00
2022-10-04T06:14:07.686Z,100.00
2022-10-04T06:17:00.081Z,100.00
2022-10-04T06:19:59.882Z,100.00
2022-10-04T06:22:27.605Z,100.00
2022-10-04T06:25:03.046Z,100.00
2022-10-04T06:27:38.954Z,100.00
2022-10-04T06:30:13.967Z,100.00
2022-10-04T06:33:17.226Z,100.00
2022-10-04T06:36:57.823Z,100.00
2022-10-04T06:39:56.703Z,100.00
2022-10-04T06:42:54.587Z,100.00
2022-10-04T06:45:49.499Z,100.00
2022-10-04T06:48:49.159Z,100.00
2022-10-04T06:51:37.385Z,100.00
2022-10-04T06:54:29.380Z,100.00
2022-10-04T06:57:27.756Z,100.00
2022-10-04T07:00:09.327Z,100.00
2022-10-04T07:02:43.516Z,100.00
2022-10-04T07:05:31.616Z,100.00
2022-10-04T07:08:14.366Z,100.00
2022-10-04T07:10:53.561Z,100.00
2022-10-04T07:13:39.660Z,100.00
2022-10-04T07:16:25.038Z,100.00
2022-10-04T07:19:05.848Z,100.00
2022-10-04T07:21:41.985Z,100.00
2022-10-04T07:24:21.163Z,100.00
2022-10-04T07:26:52.330Z,100.00
2022-10-04T07:29:25.117Z,100.00
2022-10-04T07:32:12.291Z,100.00
2022-10-04T07:34:48.424Z,100.00
2022-10-04T07:37:16.305Z,100.00
2022-10-04T07:39:57.301Z,100.00
2022-10-04T07:42:33.319Z,100.00
2022-10-04T07:45:13.387Z,100.00
2022-10-04T07:47:41.236Z,100.00
2022-10-04T07:50:23.923Z,100.00
2022-10-04T07:53:00.922Z,95.99
2022-10-04T07:55:49.734Z,94.98
2022-10-04T07:58:38.617Z,96.46
2022-10-04T08:01:20.932Z,96.01
2022-10-04T08:04:18.320Z,95.44
2022-10-04T08:06:57.555Z,94.21
2022-10-04T08:09:48.562Z,97.34
2022-10-04T08:12:27.793Z,96.97
2022-10-04T08:15:15.352Z,95.71
2022-10-04T08:17:57.260Z,93.63
2022-10-04T08:20:39.304Z,84.71
2022-10-04T08:23:27.555Z,82.63
2022-10-04T08:26:14.519Z,84.08
2022-10-04T08:28:58.252Z,75.16
2022-10-04T08:31:40.434Z,76.76
2022-10-04T08:34:31.107Z,73.73
2022-10-04T08:37:17.612Z,73.06
2022-10-04T08:40:17.636Z,71.59
2022-10-04T08:43:28.086Z,74.67
2022-10-04T08:46:38.447Z,72.87
2022-10-04T08:49:38.427Z,70.02
2022-10-04T08:52:33.630Z,68.92
2022-10-04T08:55:33.342Z,70.02
2022-10-04T08:58:25.861Z,67.14
2022-10-04T09:01:46.472Z,67.49
2022-10-04T09:04:59.862Z,63.49
2022-10-04T09:08:25.666Z,64.17
2022-10-04T09:11:30.893Z,61.28
2022-10-04T09:14:30.420Z,59.41
2022-10-04T09:17:22.286Z,62.80
2022-10-04T09:20:20.008Z,71.04
2022-10-04T09:23:02.792Z,76.93
2022-10-04T09:25:54.084Z,81.19
2022-10-04T09:29:08.782Z,81.39
2022-10-04T09:32:35.705Z,75.82
2022-10-04T09:35:58.452Z,72.19
2022-10-04T09:39:25.113Z,70.19
2022-10-04T09:42:38.053Z,76.27
2022-10-04T09:45:47.187Z,71.53
2022-10-04T09:48:35.271Z,67.72
2022-10-04T09:51:58.704Z,65.69
2022-10-04T09:55:01.091Z,70.19
2022-10-04T09:57:53.018Z,70.87
2022-10-04T10:00:22.719Z,70.87
2022-10-04T10:03:34.726Z,67.21
2022-10-04T10:06:43.984Z,68.86
2022-10-04T10:09:26.465Z,68.92
2022-10-04T10:12:19.659Z,68.28
2022-10-04T10:15:24.742Z,67.67
2022-10-04T10:18:11.767Z,66.82
2022-10-04T10:21:10.189Z,67.65
2022-10-04T10:24:04.066Z,68.85
2022-10-04T10:27:07.466Z,65.27
2022-10-04T10:30:03.364Z,64.87
2022-10-04T10:33:24.853Z,62.26
2022-10-04T10:36:36.057Z,57.07
2022-10-04T10:40:12.528Z,58.42
2022-10-04T10:43:01.082Z,59.68
2022-10-04T10:45:55.544Z,59.83
2022-10-04T10:48:47.791Z,58.09
2022-10-04T10:51:30.625Z,60.29
2022-10-04T10:54:43.226Z,56.22
2022-10-04T10:57:40.698Z,51.39
2022-10-04T11:00:21.064Z,53.09
2022-10-04T11:03:43.594Z,51.62
2022-10-04T11:06:55.578Z,51.19
2022-10-04T11:09:33.959Z,49.78
2022-10-04T11:12:55.631Z,52.83
2022-10-04T11:16:19.708Z,52.14
2022-10-04T11:19:43.802Z,52.52
2022-10-04T11:23:20.333Z,61.51
2022-10-04T11:26:23.908Z,60.45
2022-10-04T11:29:03.348Z,62.40
2022-10-04T11:32:05.606Z,60.75
2022-10-04T11:35:34.276Z,62.10
2022-10-04T11:38:13.881Z,60.29
2022-10-04T11:41:07.270Z,62.09
2022-10-04T11:44:07.219Z,63.15
2022-10-04T11:46:48.970Z,60.54
2022-10-04T11:49:49.223Z,60.80
2022-10-04T11:53:04.563Z,61.47
2022-10-04T11:56:08.618Z,61.76
2022-10-04T11:58:54.630Z,62.28
2022-10-04T12:02:06.239Z,60.60
2022-10-04T12:04:58.664Z,61.47
2022-10-04T12:07:44.170Z,62.31
2022-10-04T12:10:23.741Z,60.94
2022-10-04T12:13:27.549Z,62.70
2022-10-04T12:16:21.325Z,62.45
2022-10-04T12:19:39.668Z,62.37
2022-10-04T12:22:47.861Z,60.04
2022-10-04T12:25:47.684Z,61.99
2022-10-04T12:29:04.147Z,62.88
2022-10-04T12:31:35.875Z,62.61
2022-10-04T12:34:22.607Z,61.60
2022-10-04T12:37:16.716Z,62.44
2022-10-04T12:40:14.378Z,62.90
2022-10-04T12:42:58.181Z,63.43
2022-10-04T12:45:54.039Z,63.41
2022-10-04T12:48:50.528Z,62.06
2022-10-04T12:51:52.845Z,60.77
2022-10-04T12:54:39.479Z,62.38
2022-10-04T12:57:32.454Z,61.91
2022-10-04T13:00:16.192Z,62.30
2022-10-04T13:03:26.655Z,63.00
2022-10-04T13:06:10.415Z,62.85
2022-10-04T13:09:06.873Z,61.11
2022-10-04T13:12:07.429Z,61.28
2022-10-04T13:15:19.562Z,60.67
2022-10-04T13:18:05.860Z,60.07
2022-10-04T13:20:53.698Z,61.63
2022-10-04T13:23:48.946Z,62.49
2022-10-04T13:26:40.111Z,64.50
2022-10-04T13:29:21.064Z,63.46
2022-10-04T13:31:56.688Z,64.18
2022-10-04T13:34:40.769Z,64.00
2022-10-04T13:37:30.800Z,64.51
2022-10-04T13:40:24.802Z,66.18
2022-10-04T13:43:23.497Z,65.53
2022-10-04T13:46:06.774Z,64.83
2022-10-04T13:48:50.887Z,66.37
2022-10-04T13:51:49.925Z,64.78
2022-10-04T13:54:35.464Z,64.93
2022-10-04T13:57:24.111Z,63.45
2022-10-04T14:00:02.330Z,62.81
2022-10-04T14:03:07.640Z,62.14
2022-10-04T14:06:35.705Z,61.73
2022-10-04T14:09:45.544Z,62.22
2022-10-04T14:12:48.478Z,61.89
2022-10-04T14:15:44.013Z,60.99
2022-10-04T14:19:14.835Z,60.84
2022-10-04T14:22:10.139Z,60.87
2022-10-04T14:25:42.645Z,60.24
2022-10-04T14:29:03.862Z,60.67
2022-10-04T14:32:08.684Z,60.19
2022-10-04T14:35:00.792Z,60.43
2022-10-04T14:38:04.834Z,61.31
2022-10-04T14:41:10.174Z,60.13
2022-10-04T14:44:29.176Z,60.80
2022-10-04T14:47:18.811Z,61.10
2022-10-04T14:50:14.145Z,59.39
2022-10-04T14:53:04.783Z,59.37
2022-10-04T14:56:04.824Z,59.27
2022-10-04T14:58:50.947Z,59.78
2022-10-04T15:01:22.553Z,58.25
2022-10-04T15:04:13.370Z,59.81
2022-10-04T15:06:48.000Z,57.76
2022-10-04T15:09:55.477Z,58.78
2022-10-04T15:13:09.222Z,58.76
2022-10-04T15:15:57.915Z,58.12
2022-10-04T15:18:44.287Z,57.44
2022-10-04T15:21:35.386Z,57.82
2022-10-04T15:24:23.398Z,58.07
2022-10-04T15:27:21.631Z,57.58
2022-10-04T15:30:10.162Z,57.18
2022-10-04T15:32:49.941Z,58.13
2022-10-04T15:35:39.600Z,57.32
2022-10-04T15:38:26.524Z,58.56
2022-10-04T15:41:02.456Z,58.94
2022-10-04T15:43:42.127Z,58.37
2022-10-04T15:46:42.350Z,58.51
2022-10-04T15:49:46.950Z,59.63
2022-10-04T15:53:03.002Z,60.64
2022-10-04T15:55:56.751Z,60.67
2022-10-04T15:58:55.464Z,61.03
2022-10-04T16:02:05.154Z,61.29
2022-10-04T16:04:44.309Z,61.40
2022-10-04T16:07:56.941Z,62.69
2022-10-04T16:10:32.588Z,62.34
2022-10-04T16:13:39.190Z,62.43
2022-10-04T16:16:41.680Z,62.95
2022-10-04T16:19:32.532Z,63.82
2022-10-04T16:22:13.477Z,63.42
2022-10-04T16:24:46.620Z,63.42
2022-10-04T16:27:47.906Z,63.23
2022-10-04T16:30:28.533Z,62.40
2022-10-04T16:33:29.558Z,63.43
2022-10-04T16:36:13.820Z,63.00
2022-10-04T16:38:47.704Z,64.08
2022-10-04T16:41:37.134Z,63.75
2022-10-04T16:44:12.094Z,64.39
2022-10-04T16:46:42.320Z,66.77
2022-10-04T16:49:26.755Z,72.24
2022-10-04T16:52:27.461Z,74.51
2022-10-04T16:56:10.404Z,75.80
2022-10-04T16:58:59.425Z,78.28
2022-10-04T17:02:16.853Z,80.21
2022-10-04T17:05:18.371Z,83.38
2022-10-04T17:08:15.644Z,84.89
2022-10-04T17:11:12.531Z,86.54
2022-10-04T17:13:56.858Z,88.33
2022-10-04T17:16:35.136Z,91.31
2022-10-04T17:19:28.701Z,91.27
2022-10-04T17:22:15.367Z,93.19
2022-10-04T17:25:01.126Z,94.47
2022-10-04T17:27:47.090Z,94.00
2022-10-04T17:30:19.715Z,95.29
2022-10-04T17:33:19.452Z,96.65
2022-10-04T17:36:39.755Z,98.26
2022-10-04T17:39:33.482Z,100.00
2022-10-04T17:42:15.618Z,99.40
2022-10-04T17:45:06.192Z,100.00
2022-10-04T17:47:42.831Z,98.24
2022-10-04T17:50:18.698Z,97.47
2022-10-04T17:52:54.535Z,96.74
2022-10-04T17:55:27.638Z,96.42
2022-10-04T17:58:08.597Z,97.42
2022-10-04T18:00:55.767Z,95.96
2022-10-04T18:03:35.523Z,95.67
2022-10-04T18:06:16.147Z,95.91
2022-10-04T18:08:54.650Z,96.36
2022-10-04T18:11:34.342Z,97.42
2022-10-04T18:14:10.310Z,97.53
2022-10-04T18:16:49.858Z,98.80
2022-10-04T18:19:51.410Z,99.08
2022-10-04T18:22:21.285Z,96.66
2022-10-04T18:25:11.571Z,97.78
2022-10-04T18:27:51.524Z,100.00
2022-10-04T18:30:20.876Z,100.00
2022-10-04T18:32:51.689Z,100.00
2022-10-04T18:35:27.165Z,100.00
2022-10-04T18:37:57.569Z,100.00
2022-10-04T18:40:31.970Z,100.00
2022-10-04T18:43:00.693Z,100.00
2022-10-04T18:45:30.029Z,100.00
2022-10-04T18:48:00.570Z,100.00
2022-10-04T18:50:38.058Z,100.00
2022-10-04T18:53:33.799Z,100.00
2022-10-04T18:56:05.943Z,100.00
2022-10-04T18:58:58.178Z,100.00
2022-10-04T19:01:49.820Z,100.00
2022-10-04T19:04:30.477Z,100.00
2022-10-04T19:07:11.786Z,100.00
2022-10-04T19:10:01.165Z,100.00
2022-10-04T19:12:41.655Z,100.00
2022-10-04T19:15:29.993Z,100.00
2022-10-04T19:18:22.286Z,100.00
2022-10-04T19:21:01.532Z,100.00
2022-10-04T19:23:43.751Z,100.00
2022-10-04T19:26:37.857Z,100.00
2022-10-04T19:29:25.960Z,100.00
2022-10-04T19:32:00.010Z,100.00
2022-10-04T19:34:44.783Z,100.00
2022-10-04T19:37:25.956Z,100.00
2022-10-04T19:40:09.696Z,100.00
2022-10-04T19:42:50.979Z,100.00
2022-10-04T19:45:34.626Z,100.00
2022-10-04T19:48:11.412Z,100.00
2022-10-04T19:50:46.984Z,100.00
2022-10-04T19:53:19.296Z,100.00
2022-10-04T19:55:55.423Z,100.00
2022-10-04T19:58:36.669Z,100.00
2022-10-04T20:01:11.497Z,100.00
2022-10-04T20:03:39.588Z,100.00
2022-10-04T20:06:08.071Z,100.00
2022-10-04T20:08:52.187Z,100.00
2022-10-04T20:11:23.109Z,100.00
2022-10-04T20:14:54.587Z,100.00
2022-10-04T20:17:33.454Z,100.00
2022-10-04T20:20:01.057Z,100.00
2022-10-04T20:22:55.057Z,100.00
2022-10-04T20:26:02.736Z,100.00
2022-10-04T20:28:43.684Z,100.00
2022-10-04T20:31:27.175Z,100.00
2022-10-04T20:33:54.159Z,100.00
2022-10-04T20:36:50.870Z,100.00
2022-10-04T20:39:59.636Z,100.00
2022-10-04T20:42:37.036Z,100.00
2022-10-04T20:45:25.565Z,100.00
2022-10-04T20:47:54.591Z,100.00
2022-10-04T20:50:38.333Z,100.00
2022-10-04T20:53:15.206Z,100.00
2022-10-04T20:55:42.492Z,100.00
2022-10-04T20:58:30.320Z,100.00
2022-10-04T21:01:01.545Z,100.00
2022-10-04T21:03:28.478Z,100.00
2022-10-04T21:06:02.462Z,100.00
2022-10-04T21:08:30.303Z,100.00
2022-10-04T21:11:21.206Z,100.00
2022-10-04T21:13:55.549Z,100.00
2022-10-04T21:16:44.158Z,100.00
2022-10-04T21:19:48.002Z,100.00
2022-10-04T21:22:35.812Z,100.00
2022-10-04T21:25:21.405Z,100.00
2022-10-04T21:27:48.462Z,100.00
2022-10-04T21:30:17.892Z,100.00
2022-10-04T21:32:46.438Z,100.00
2022-10-04T21:35:13.833Z,100.00
2022-10-04T21:37:40.807Z,100.00
2022-10-04T21:40:09.184Z,100.00
2022-10-04T21:42:35.966Z,100.00
2022-10-04T21:45:03.123Z,100.00
2022-10-04T21:47:30.175Z,100.00
2022-10-04T21:49:58.281Z,100.00
2022-10-04T21:52:25.072Z,100.00
2022-10-04T21:54:52.047Z,100.00
2022-10-04T21:57:18.841Z,100.00
2022-10-04T21:59:45.648Z,100.00
2022-10-04T22:02:12.486Z,100.00
2022-10-04T22:04:39.569Z,100.00
2022-10-04T22:07:07.665Z,100.00
2022-10-04T22:09:34.536Z,100.00
2022-10-04T22:12:01.444Z,100.00
2022-10-04T22:14:28.200Z,100.00
2022-10-04T22:16:54.973Z,100.00
2022-10-04T22:19:21.872Z,100.00
2022-10-04T22:21:48.643Z,100.00
2022-10-04T22:24:20.198Z,100.00
2022-10-04T22:26:47.728Z,100.00
2022-10-04T22:29:17.258Z,100.00
2022-10-04T22:31:49.954Z,100.00
2022-10-04T22:34:19.996Z,100.00
2022-10-04T22:36:50.128Z,100.00
2022-10-04T22:39:20.609Z,100.00
2022-10-04T22:41:53.566Z,100.00
2022-10-04T22:44:25.520Z,100.00
2022-10-04T22:46:55.262Z,100.00
2022-10-04T22:49:26.434Z,100.00
2022-10-04T22:51:55.985Z,100.00
2022-10-04T22:54:27.710Z,100.00
2022-10-04T22:56:56.542Z,100.00
2022-10-04T22:59:33.768Z,100.00
2022-10-04T23:02:10.622Z,100.00
2022-10-04T23:04:37.501Z,100.00
2022-10-04T23:07:04.518Z,100.00
2022-10-04T23:09:32.701Z,100.00
2022-10-04T23:11:59.915Z,100.00
2022-10-04T23:14:27.154Z,100.00
2022-10-04T23:16:53.974Z,100.00
2022-10-04T23:19:20.962Z,100.00
2022-10-04T23:21:49.870Z,100.00
2022-10-04T23:24:19.414Z,100.00
2022-10-04T23:26:54.365Z,100.00
2022-10-04T23:29:24.701Z,100.00
2022-10-04T23:31:52.087Z,100.00
2022-10-04T23:34:23.977Z,100.00
2022-10-04T23:36:52.231Z,100.00
2022-10-04T23:39:24.757Z,100.00
2022-10-04T23:41:55.923Z,100.00
2022-10-04T23:44:29.750Z,100.00
2022-10-04T23:46:56.772Z,100.00
2022-10-04T23:49:23.535Z,100.00
2022-10-04T23:51:59.366Z,100.00
2022-10-04T23:54:26.219Z,100.00
2022-10-04T23:56:54.398Z,100.00
2022-10-04T23:59:26.123Z,100.00
